Time;durP1;ratioP1;P1;durP2;ratioP2;P2;SDS_P1;SDS_P2;PMS_P1;PMS_P2;Temp;Humidity;BMP_temperature;BMP_pressure;BME280_temperature;BME280_humidity;BME280_pressure;Samples;Min_cycle;Max_cycle;Signal;HPM_P1;HPM_P2
2023/06/07 00:00:54;;;;;;;5.88;4.28;;;;;;;17.42;77.91;99075.84;5147247;27;20060;-75
2023/06/07 00:03:22;;;;;;;4.85;4.35;;;;;;;17.42;77.62;99070.47;5146989;27;20034;-75
2023/06/07 00:05:49;;;;;;;4.90;4.10;;;;;;;17.42;78.08;99069.63;5146122;27;20295;-75
2023/06/07 00:08:17;;;;;;;5.25;4.07;;;;;;;17.44;78.08;99070.34;5146128;27;20035;-75
2023/06/07 00:10:44;;;;;;;4.78;3.90;;;;;;;17.24;78.38;99030.09;5147075;27;20050;-75
2023/06/07 00:13:11;;;;;;;4.15;3.72;;;;;;;17.44;78.34;99067.66;5146859;27;20039;-74
2023/06/07 00:15:38;;;;;;;5.20;4.50;;;;;;;17.43;78.44;99074.00;5147388;27;20057;-75
2023/06/07 00:18:07;;;;;;;4.28;3.88;;;;;;;17.40;78.17;99064.41;5147106;27;20035;-74
2023/06/07 00:20:35;;;;;;;4.72;4.22;;;;;;;17.40;78.12;99061.72;5146457;27;20054;-74
2023/06/07 00:23:04;;;;;;;4.82;4.10;;;;;;;17.39;78.60;99068.06;5147031;27;20047;-74
2023/06/07 00:25:31;;;;;;;5.03;4.53;;;;;;;16.65;78.28;98937.03;5146695;27;20049;-75
2023/06/07 00:27:58;;;;;;;5.45;4.90;;;;;;;17.40;78.73;99061.72;5146423;27;20050;-75
2023/06/07 00:30:24;;;;;;;5.43;4.55;;;;;;;17.40;78.63;99064.41;5147243;27;20047;-74
2023/06/07 00:32:51;;;;;;;5.28;4.78;;;;;;;17.06;79.12;99004.88;5145775;27;20295;-75
2023/06/07 00:35:18;;;;;;;5.25;4.75;;;;;;;17.24;79.05;99040.81;5145743;28;20039;-75
2023/06/07 00:37:46;;;;;;;5.70;4.93;;;;;;;17.39;78.94;99060.03;5145726;28;20050;-75
2023/06/07 00:40:13;;;;;;;5.28;4.78;;;;;;;17.20;79.01;99020.63;5147186;27;20035;-75
2023/06/07 00:42:40;;;;;;;4.63;4.00;;;;;;;17.39;79.53;99062.72;5151408;27;20043;-74
2023/06/07 00:45:08;;;;;;;5.30;4.75;;;;;;;17.17;79.04;99028.03;5150740;27;20118;-75
2023/06/07 00:47:38;;;;;;;5.63;4.57;;;;;;;17.40;79.39;99064.41;5149934;27;20154;-75
2023/06/07 00:50:06;;;;;;;5.03;4.30;;;;;;;17.40;79.19;99066.25;5151020;27;20098;-74
2023/06/07 00:52:34;;;;;;;5.30;4.80;;;;;;;17.40;78.71;99061.72;5150970;27;20184;-75
2023/06/07 00:55:03;;;;;;;5.25;4.78;;;;;;;16.94;79.05;98985.38;5150608;27;20095;-74
2023/06/07 00:57:32;;;;;;;5.78;3.85;;;;;;;17.39;78.92;99052.00;5150848;27;20046;-75
2023/06/07 00:59:59;;;;;;;4.78;4.28;;;;;;;17.39;78.86;99057.34;5151062;27;20039;-74
2023/06/07 01:02:29;;;;;;;5.57;4.38;;;;;;;17.40;78.95;99060.88;5151020;27;20233;-75
2023/06/07 01:04:56;;;;;;;4.72;4.22;;;;;;;17.41;78.63;99059.91;5150951;27;20054;-75
2023/06/07 01:07:24;;;;;;;5.07;4.55;;;;;;;17.39;79.08;99054.69;5150974;27;20057;-74
2023/06/07 01:09:51;;;;;;;6.28;4.40;;;;;;;17.15;78.76;99016.63;5150631;27;20038;-74
2023/06/07 01:12:20;;;;;;;5.20;4.60;;;;;;;17.36;78.83;99057.63;5150562;27;20043;-74
2023/06/07 01:14:49;;;;;;;4.13;3.72;;;;;;;17.18;78.92;99019.03;5150257;27;20047;-75
2023/06/07 01:17:17;;;;;;;4.90;4.38;;;;;;;17.17;79.01;99018.19;5150528;27;20035;-75
2023/06/07 01:19:51;;;;;;;5.18;4.20;;;;;;;17.36;79.10;99048.75;5150000;27;20122;-75
2023/06/07 01:22:20;;;;;;;5.18;4.63;;;;;;;17.37;79.35;99061.16;5150670;27;20051;-75
2023/06/07 01:24:49;;;;;;;5.03;4.53;;;;;;;17.36;79.41;99052.25;5150337;27;20096;-75
2023/06/07 01:27:16;;;;;;;4.85;4.35;;;;;;;17.36;79.32;99054.09;5149729;27;20057;-75
2023/06/07 01:29:45;;;;;;;5.45;4.47;;;;;;;17.10;79.16;99013.50;5149956;27;20061;-75
2023/06/07 01:32:13;;;;;;;4.82;4.22;;;;;;;17.36;79.42;99056.78;5149908;27;20035;-75
2023/06/07 01:34:41;;;;;;;4.95;4.45;;;;;;;16.82;79.01;98969.56;5149836;27;20039;-74
2023/06/07 01:37:08;;;;;;;4.88;4.38;;;;;;;17.35;79.16;99050.56;5148938;27;20049;-74
2023/06/07 01:39:38;;;;;;;5.43;4.45;;;;;;;17.36;78.78;99054.94;5148909;27;20045;-74
2023/06/07 01:42:08;;;;;;;4.72;4.13;;;;;;;17.35;78.98;99055.94;5150005;27;20102;-74
2023/06/07 01:44:37;;;;;;;4.45;4.05;;;;;;;17.35;78.89;99058.59;5149419;27;20061;-74
2023/06/07 01:47:05;;;;;;;4.70;4.20;;;;;;;17.37;79.03;99048.59;5149612;27;20088;-74
2023/06/07 01:49:31;;;;;;;5.10;4.47;;;;;;;17.37;79.07;99048.59;5150133;27;20045;-74
2023/06/07 01:51:58;;;;;;;5.43;4.90;;;;;;;17.39;78.90;99049.31;5148189;27;20047;-74
2023/06/07 01:54:25;;;;;;;5.03;4.53;;;;;;;17.37;78.62;99051.28;5149729;27;20095;-74
2023/06/07 01:57:04;;;;;;;5.82;4.90;;;;;;;17.34;78.94;99048.88;5149925;27;20039;-74
2023/06/07 01:59:39;;;;;;;5.47;4.85;;;;;;;17.29;79.34;99038.56;5148559;27;20118;-74
2023/06/07 02:02:14;;;;;;;4.53;4.13;;;;;;;17.30;79.53;99039.41;5149573;27;20200;-75
2023/06/07 02:04:46;;;;;;;5.13;4.63;;;;;;;17.28;79.53;99038.69;5149833;27;20049;-74
2023/06/07 02:07:18;;;;;;;5.15;4.65;;;;;;;17.26;79.32;99038.84;5149534;27;20106;-74
2023/06/07 02:09:48;;;;;;;4.90;4.25;;;;;;;17.06;79.29;99001.38;5148908;27;20069;-74
2023/06/07 02:12:16;;;;;;;5.80;4.25;;;;;;;17.24;79.51;99037.28;5149436;27;20043;-74
2023/06/07 02:14:46;;;;;;;6.13;5.07;;;;;;;17.24;79.79;99026.56;5148272;27;20039;-73
2023/06/07 02:17:13;;;;;;;6.35;4.40;;;;;;;17.24;79.71;99026.56;5149117;27;20115;-74
2023/06/07 02:19:39;;;;;;;5.25;4.75;;;;;;;17.26;79.31;99032.63;5149008;27;20092;-74
2023/06/07 02:22:07;;;;;;;5.05;4.30;;;;;;;17.26;79.46;99043.34;5149217;27;20035;-74
2023/06/07 02:24:34;;;;;;;5.15;4.28;;;;;;;17.28;79.45;99022.63;5148883;27;20047;-74
2023/06/07 02:27:00;;;;;;;4.75;4.32;;;;;;;17.27;79.23;99027.13;5149181;27;20039;-74
2023/06/07 02:29:27;;;;;;;5.00;4.50;;;;;;;17.28;79.50;99026.16;5149027;27;20051;-74
2023/06/07 02:31:57;;;;;;;5.88;5.28;;;;;;;17.07;79.43;98989.66;5147951;27;20291;-74
2023/06/07 02:34:25;;;;;;;5.35;4.85;;;;;;;17.04;79.21;98981.91;5148725;27;20101;-74
2023/06/07 02:36:52;;;;;;;5.47;4.70;;;;;;;17.25;79.58;99025.56;5147828;27;20299;-74
2023/06/07 02:39:19;;;;;;;6.07;4.70;;;;;;;17.22;79.56;99028.53;5148743;27;20046;-73
2023/06/07 02:41:46;;;;;;;5.78;4.90;;;;;;;16.46;79.42;98899.50;5148756;27;20108;-74
2023/06/07 02:44:12;;;;;;;5.75;5.15;;;;;;;17.11;79.33;98997.31;5148590;27;20051;-74
2023/06/07 02:46:39;;;;;;;8.32;5.10;;;;;;;17.23;79.53;99022.19;5147628;27;20047;-74
2023/06/07 02:49:07;;;;;;;5.55;5.00;;;;;;;17.23;79.69;99024.88;5148996;27;20061;-74
2023/06/07 02:51:37;;;;;;;5.13;4.63;;;;;;;17.23;80.10;99025.72;5148442;27;20076;-74
2023/06/07 02:54:04;;;;;;;5.90;5.30;;;;;;;16.94;79.95;98976.50;5148427;27;20119;-74
2023/06/07 02:56:32;;;;;;;6.18;5.57;;;;;;;17.05;79.69;98997.00;5148610;27;20139;-76
2023/06/07 02:58:59;;;;;;;5.70;5.10;;;;;;;17.28;80.03;99023.47;5148314;27;20080;-74
2023/06/07 03:01:27;;;;;;;7.07;6.43;;;;;;;17.30;80.19;99026.03;5148112;27;20039;-73
2023/06/07 03:03:53;;;;;;;9.90;6.75;;;;;;;17.07;79.93;98984.31;5147526;27;20334;-73
2023/06/07 03:06:22;;;;;;;16.67;10.30;;;;;;;17.30;79.79;99026.88;5148122;27;20039;-73
2023/06/07 03:08:48;;;;;;;7.65;6.05;;;;;;;17.30;79.78;99031.38;5148323;27;20038;-74
2023/06/07 03:11:15;;;;;;;7.25;5.80;;;;;;;17.29;80.22;99021.66;5148262;27;20287;-74
2023/06/07 03:13:42;;;;;;;7.05;6.40;;;;;;;17.27;80.05;99032.50;5148002;27;20207;-74
2023/06/07 03:16:08;;;;;;;7.40;6.70;;;;;;;17.28;80.35;99034.19;5147858;27;20339;-74
2023/06/07 03:18:35;;;;;;;7.57;6.78;;;;;;;17.29;80.46;99030.53;5148121;27;20190;-74
2023/06/07 03:21:03;;;;;;;7.03;6.32;;;;;;;17.07;80.33;98989.66;5147716;27;20043;-74
2023/06/07 03:23:31;;;;;;;7.65;6.75;;;;;;;17.30;80.21;99029.53;5148302;27;20051;-74
2023/06/07 03:25:58;;;;;;;7.78;7.05;;;;;;;17.31;80.12;99038.44;5147704;27;20046;-74
2023/06/07 03:28:25;;;;;;;6.95;5.90;;;;;;;17.00;80.24;98992.03;5147905;27;20039;-74
2023/06/07 03:30:52;;;;;;;6.65;6.05;;;;;;;17.31;80.26;99036.59;5147589;27;20043;-74
2023/06/07 03:33:19;;;;;;;6.63;6.03;;;;;;;17.11;80.14;99001.81;5146746;27;20031;-74
2023/06/07 03:35:45;;;;;;;7.68;6.60;;;;;;;17.32;80.01;99037.44;5147509;27;20039;-75
2023/06/07 03:38:12;;;;;;;6.50;5.90;;;;;;;17.32;80.26;99032.09;5147988;27;20043;-74
2023/06/07 03:40:40;;;;;;;8.02;6.53;;;;;;;17.32;80.23;99032.09;5147336;27;20045;-75
2023/06/07 03:43:07;;;;;;;6.63;6.00;;;;;;;17.31;80.65;99033.06;5147088;27;20039;-74
2023/06/07 03:45:34;;;;;;;8.23;6.80;;;;;;;17.33;80.33;99040.97;5147305;27;20050;-75
2023/06/07 03:48:00;;;;;;;7.43;5.97;;;;;;;17.32;80.66;99040.13;5147800;27;20043;-74
2023/06/07 03:50:27;;;;;;;7.93;7.22;;;;;;;16.87;80.45;98962.81;5147242;27;20095;-74
2023/06/07 03:52:54;;;;;;;6.63;6.00;;;;;;;17.29;80.88;99038.56;5147474;27;20173;-75
2023/06/07 03:55:20;;;;;;;6.35;5.82;;;;;;;17.30;80.56;99039.41;5147138;27;20043;-75
2023/06/07 03:57:49;;;;;;;6.97;6.38;;;;;;;17.28;80.77;99041.38;5146321;27;20053;-74
2023/06/07 04:00:17;;;;;;;6.60;5.95;;;;;;;17.27;80.76;99031.66;5146138;27;20216;-74
2023/06/07 04:02:44;;;;;;;7.22;6.53;;;;;;;17.28;80.72;99039.53;5147510;27;20194;-75
2023/06/07 04:05:11;;;;;;;7.72;6.93;;;;;;;17.07;80.73;99003.91;5147489;27;20043;-75
2023/06/07 04:07:37;;;;;;;7.88;7.00;;;;;;;17.29;80.38;99040.41;5146147;27;20223;-74
2023/06/07 04:10:06;;;;;;;6.93;6.22;;;;;;;17.28;80.82;99038.69;5147522;27;20084;-75
2023/06/07 04:12:32;;;;;;;7.03;6.32;;;;;;;17.06;80.64;98993.34;5146714;27;20042;-74
2023/06/07 04:15:00;;;;;;;6.70;5.78;;;;;;;17.26;80.65;99038.84;5146670;27;20058;-75
2023/06/07 04:17:27;;;;;;;6.03;5.53;;;;;;;17.24;81.09;99045.31;5146856;27;20045;-75
2023/06/07 04:19:56;;;;;;;6.55;5.22;;;;;;;17.21;81.06;99043.75;5146792;27;20049;-75
2023/06/07 04:22:24;;;;;;;6.43;5.82;;;;;;;17.25;81.00;99047.84;5146655;27;20039;-74
2023/06/07 04:24:51;;;;;;;6.38;5.78;;;;;;;17.03;81.11;99015.88;5147308;27;20073;-74
2023/06/07 04:27:18;;;;;;;6.32;5.72;;;;;;;17.06;81.37;99012.06;5146704;27;20110;-74
2023/06/07 04:29:48;;;;;;;7.07;6.38;;;;;;;17.26;81.77;99051.38;5145766;27;20061;-74
2023/06/07 04:32:18;;;;;;;6.25;5.65;;;;;;;15.22;81.40;98706.16;5146779;27;20043;-75
2023/06/07 04:34:45;;;;;;;5.07;4.57;;;;;;;17.24;81.55;99054.19;5146873;27;20047;-75
2023/06/07 04:37:13;;;;;;;5.18;4.68;;;;;;;17.26;81.60;99051.38;5147035;27;20105;-75
2023/06/07 04:39:40;;;;;;;7.10;5.68;;;;;;;17.26;81.02;99051.38;5146372;27;20043;-75
2023/06/07 04:42:09;;;;;;;5.40;4.90;;;;;;;17.01;nan;99017.81;5145434;28;20035;-75
2023/06/07 04:44:37;;;;;;;6.47;4.93;;;;;;;17.23;81.26;99049.81;5145331;28;20215;-75
2023/06/07 04:47:04;;;;;;;6.88;6.13;;;;;;;17.24;81.19;99047.97;5146224;28;20050;-75
2023/06/07 04:49:34;;;;;;;5.70;5.20;;;;;;;17.22;81.54;99050.78;5146172;28;20034;-74
2023/06/07 04:52:02;;;;;;;6.72;5.72;;;;;;;17.22;81.52;99056.16;5145420;28;20035;-75
2023/06/07 04:54:29;;;;;;;5.80;4.88;;;;;;;16.72;81.04;98964.16;5146338;27;20058;-75
2023/06/07 04:56:57;;;;;;;6.03;5.43;;;;;;;16.88;80.67;98996.63;5145396;28;20035;-75
2023/06/07 04:59:24;;;;;;;6.00;5.40;;;;;;;17.24;80.73;99056.03;5145960;28;20050;-75
2023/06/07 05:01:51;;;;;;;7.80;5.28;;;;;;;17.23;81.08;99065.88;5146102;28;20208;-75
2023/06/07 05:04:18;;;;;;;6.50;5.03;;;;;;;17.21;81.08;99059.81;5146534;27;20038;-75
2023/06/07 05:06:46;;;;;;;5.03;4.53;;;;;;;17.21;81.64;99054.47;5145408;28;20032;-75
2023/06/07 05:09:13;;;;;;;5.28;4.78;;;;;;;17.02;81.09;99032.91;5146233;28;20051;-75
2023/06/07 05:11:40;;;;;;;4.78;4.30;;;;;;;17.05;81.45;99031.78;5145366;28;20031;-75
2023/06/07 05:14:07;;;;;;;5.63;5.00;;;;;;;17.23;81.17;99067.72;5146744;28;20039;-75
2023/06/07 05:16:33;;;;;;;6.45;5.55;;;;;;;17.23;81.42;99075.75;5145290;28;20318;-75
2023/06/07 05:19:03;;;;;;;5.72;4.95;;;;;;;17.24;81.65;99082.81;5145125;28;20039;-75
2023/06/07 05:21:30;;;;;;;5.47;4.95;;;;;;;17.23;81.63;99073.06;5146300;28;20058;-74
2023/06/07 05:23:58;;;;;;;7.85;5.32;;;;;;;17.03;81.64;99041.78;5146561;28;20050;-75
2023/06/07 05:26:25;;;;;;;6.60;5.10;;;;;;;17.24;81.29;99075.63;5147527;27;20046;-75
2023/06/07 05:28:52;;;;;;;7.28;5.38;;;;;;;16.70;81.68;99000.91;5149936;27;20035;-74
2023/06/07 05:31:20;;;;;;;8.48;5.30;;;;;;;17.27;81.69;99078.03;5150452;27;20068;-75
2023/06/07 05:33:46;;;;;;;5.25;4.75;;;;;;;17.28;81.67;99079.72;5150416;27;20276;-75
2023/06/07 05:36:13;;;;;;;7.50;5.13;;;;;;;17.14;81.39;99052.41;5150289;27;20058;-75
2023/06/07 05:38:40;;;;;;;6.25;4.95;;;;;;;17.31;81.78;99076.78;5150012;27;20092;-75
2023/06/07 05:41:08;;;;;;;6.55;5.35;;;;;;;17.33;81.78;99081.16;5150101;27;20038;-75
2023/06/07 05:43:35;;;;;;;6.53;5.38;;;;;;;16.46;81.61;98926.25;5149156;27;20059;-75
2023/06/07 05:46:02;;;;;;;6.10;5.07;;;;;;;17.12;81.75;99039.16;5149450;27;20066;-75
2023/06/07 05:48:29;;;;;;;6.30;5.70;;;;;;;17.34;81.61;99070.31;5150130;27;20035;-75
2023/06/07 05:50:57;;;;;;;5.30;4.80;;;;;;;17.14;82.02;99047.06;5149765;27;20047;-75
2023/06/07 05:53:23;;;;;;;5.55;5.00;;;;;;;17.34;81.74;99083.69;5149462;27;20173;-75
2023/06/07 05:55:50;;;;;;;6.00;5.38;;;;;;;17.16;81.76;99050.44;5148568;27;20080;-75
2023/06/07 05:58:19;;;;;;;5.95;5.35;;;;;;;17.36;81.52;99086.25;5149966;27;20035;-75
2023/06/07 06:00:47;;;;;;;5.88;5.28;;;;;;;17.37;81.55;99083.44;5149894;27;20081;-75
2023/06/07 06:03:16;;;;;;;6.85;5.88;;;;;;;17.39;81.61;99083.28;5149506;27;20035;-75
2023/06/07 06:05:43;;;;;;;5.80;5.20;;;;;;;17.41;81.49;99087.53;5148246;27;20035;-75
2023/06/07 06:08:10;;;;;;;6.47;5.40;;;;;;;17.42;81.59;99094.59;5149195;27;20229;-75
2023/06/07 06:10:36;;;;;;;10.93;5.90;;;;;;;17.30;81.63;99074.22;5148120;27;20065;-74
2023/06/07 06:13:03;;;;;;;7.90;5.88;;;;;;;17.25;81.44;99069.28;5149024;27;20054;-75
2023/06/07 06:15:31;;;;;;;6.60;6.00;;;;;;;17.46;81.58;99097.84;5149452;27;20053;-75
2023/06/07 06:17:58;;;;;;;8.38;6.07;;;;;;;17.48;81.72;99111.97;5149549;27;20043;-75
2023/06/07 06:20:25;;;;;;;7.00;6.00;;;;;;;17.47;81.88;99103.06;5148047;27;20299;-74
2023/06/07 06:22:52;;;;;;;6.13;5.53;;;;;;;17.48;81.33;99098.56;5149212;27;20098;-75
2023/06/07 06:25:18;;;;;;;6.70;6.03;;;;;;;17.51;81.61;99098.28;5149310;27;20065;-74
2023/06/07 06:27:46;;;;;;;6.57;5.72;;;;;;;17.34;81.51;99070.31;5148945;27;20299;-74
2023/06/07 06:30:13;;;;;;;6.50;5.90;;;;;;;16.56;81.26;98942.34;5149211;27;20350;-74
2023/06/07 06:32:41;;;;;;;7.10;6.50;;;;;;;17.58;81.19;99102.97;5148662;27;20031;-75
2023/06/07 06:35:08;;;;;;;6.90;6.20;;;;;;;17.59;81.24;99107.34;5148579;27;20043;-75
2023/06/07 06:37:35;;;;;;;6.47;5.88;;;;;;;17.63;81.04;99111.50;5148824;27;20291;-75
2023/06/07 06:40:04;;;;;;;6.25;5.65;;;;;;;17.62;81.41;99104.44;5148829;27;20039;-75
2023/06/07 06:42:30;;;;;;;6.43;5.82;;;;;;;16.94;80.85;98996.09;5148704;27;20287;-74
2023/06/07 06:44:57;;;;;;;6.28;5.68;;;;;;;17.67;80.72;99111.22;5148240;27;20047;-75
2023/06/07 06:47:25;;;;;;;7.35;5.80;;;;;;;17.69;80.57;99114.63;5148352;27;20152;-75
2023/06/07 06:49:54;;;;;;;5.65;5.15;;;;;;;17.69;80.38;99109.25;5147456;27;20042;-75
2023/06/07 06:52:20;;;;;;;6.63;5.93;;;;;;;17.48;80.29;99077.97;5147462;27;20035;-75
2023/06/07 06:54:47;;;;;;;5.72;5.13;;;;;;;17.74;80.36;99113.22;5148418;27;20313;-75
2023/06/07 06:57:14;;;;;;;6.15;5.55;;;;;;;17.60;80.34;99092.13;5148644;27;20106;-75
2023/06/07 06:59:41;;;;;;;7.93;6.35;;;;;;;17.76;80.29;99119.28;5148459;27;20214;-75
2023/06/07 07:02:07;;;;;;;6.05;5.45;;;;;;;17.78;79.78;99120.00;5148298;27;20043;-75
2023/06/07 07:04:34;;;;;;;7.00;6.30;;;;;;;17.29;79.90;99035.88;5148529;27;20053;-75
2023/06/07 07:07:02;;;;;;;7.15;6.13;;;;;;;17.80;80.32;99122.56;5147991;27;20035;-75
2023/06/07 07:09:30;;;;;;;6.55;5.95;;;;;;;17.60;80.16;99084.09;5147135;27;20046;-75
2023/06/07 07:11:57;;;;;;;6.53;5.82;;;;;;;17.10;80.22;99000.13;5147919;27;20095;-74
2023/06/07 07:14:23;;;;;;;7.20;6.50;;;;;;;17.89;79.64;99127.09;5147914;27;20188;-74
2023/06/07 07:16:50;;;;;;;6.78;5.95;;;;;;;17.77;79.84;99101.38;5147737;27;20053;-75
2023/06/07 07:19:17;;;;;;;6.97;5.85;;;;;;;17.69;79.75;99090.50;5146889;27;20035;-75
2023/06/07 07:21:44;;;;;;;8.60;6.57;;;;;;;17.73;79.30;99097.28;5146787;27;20039;-75
2023/06/07 07:24:12;;;;;;;7.47;6.18;;;;;;;17.95;79.45;99130.09;5148330;27;20107;-75
2023/06/07 07:26:39;;;;;;;6.55;5.95;;;;;;;17.95;80.00;99130.09;5147680;27;20031;-75
2023/06/07 07:29:06;;;;;;;7.40;6.70;;;;;;;17.98;79.47;99144.19;5148056;27;20100;-75
2023/06/07 07:31:33;;;;;;;6.50;5.90;;;;;;;17.76;79.14;99105.91;5147842;27;20283;-75
2023/06/07 07:34:00;;;;;;;7.53;6.35;;;;;;;17.98;78.98;99137.00;5147531;27;20080;-75
2023/06/07 07:36:27;;;;;;;8.57;6.25;;;;;;;17.99;79.25;99140.53;5147559;27;20039;-75
2023/06/07 07:38:54;;;;;;;7.15;6.45;;;;;;;17.75;78.87;99098.84;5147631;27;20051;-75
2023/06/07 07:41:22;;;;;;;7.50;6.80;;;;;;;17.66;78.92;99080.03;5147328;27;20096;-75
2023/06/07 07:43:49;;;;;;;7.75;7.03;;;;;;;17.38;79.12;99044.94;5146196;27;20092;-75
2023/06/07 07:46:16;;;;;;;7.57;6.88;;;;;;;17.79;78.83;99102.09;5147230;27;20104;-75
2023/06/07 07:48:44;;;;;;;7.25;6.57;;;;;;;17.79;78.94;99105.63;5146873;27;20061;-75
2023/06/07 07:51:11;;;;;;;7.47;6.72;;;;;;;18.02;79.09;99142.94;5147109;27;20066;-75
2023/06/07 07:53:38;;;;;;;7.80;6.93;;;;;;;18.02;78.61;99142.94;5147434;27;20273;-75
2023/06/07 07:56:05;;;;;;;6.50;5.90;;;;;;;18.02;78.39;99145.63;5147080;27;20039;-75
2023/06/07 07:58:33;;;;;;;7.50;6.80;;;;;;;18.02;78.32;99149.16;5147272;27;20053;-75
2023/06/07 08:01:00;;;;;;;7.47;6.78;;;;;;;18.04;78.48;99149.88;5146809;27;20229;-75
2023/06/07 08:03:26;;;;;;;7.85;7.13;;;;;;;18.03;78.48;99147.31;5146157;27;20076;-75
2023/06/07 08:05:53;;;;;;;7.57;6.40;;;;;;;18.04;78.25;99147.19;5145637;27;20325;-75
2023/06/07 08:08:20;;;;;;;10.52;6.63;;;;;;;18.06;78.54;99144.38;5147063;27;20321;-75
2023/06/07 08:10:47;;;;;;;7.15;6.18;;;;;;;17.77;78.42;99107.59;5146747;27;20043;-75
2023/06/07 08:13:14;;;;;;;8.52;7.68;;;;;;;17.78;78.69;99097.72;5146413;27;20279;-75
2023/06/07 08:15:43;;;;;;;8.00;7.20;;;;;;;18.13;78.38;99141.00;5147148;27;20047;-75
2023/06/07 08:18:09;;;;;;;9.05;6.88;;;;;;;18.04;78.49;99123.06;5147146;27;20043;-75
2023/06/07 08:20:37;;;;;;;8.68;7.45;;;;;;;18.19;78.52;99145.81;5146885;27;20042;-75
2023/06/07 08:23:04;;;;;;;12.75;7.55;;;;;;;18.21;78.51;99143.84;5145609;27;20123;-75
2023/06/07 08:25:31;;;;;;;7.13;6.43;;;;;;;18.02;78.15;99108.94;5146555;27;20180;-75
2023/06/07 08:27:58;;;;;;;8.07;6.07;;;;;;;18.23;77.87;99136.50;5146585;27;20042;-74
2023/06/07 08:30:25;;;;;;;7.45;6.75;;;;;;;18.22;77.76;99137.47;5146506;27;20047;-74
2023/06/07 08:32:53;;;;;;;8.07;6.95;;;;;;;18.02;77.71;99114.28;5146256;27;20088;-75
2023/06/07 08:35:20;;;;;;;10.05;6.93;;;;;;;18.26;78.04;99143.44;5147169;27;20047;-75
2023/06/07 08:37:47;;;;;;;7.57;6.43;;;;;;;18.06;77.86;99105.00;5146567;28;20102;-75
2023/06/07 08:40:18;;;;;;;7.85;7.05;;;;;;;18.29;77.62;99140.47;5146983;28;20031;-75
2023/06/07 08:42:45;;;;;;;8.32;7.53;;;;;;;18.31;77.76;99141.19;5146679;28;20050;-75
2023/06/07 08:45:12;;;;;;;9.98;7.20;;;;;;;18.33;77.45;99130.31;5146172;28;20067;-75
2023/06/07 08:47:41;;;;;;;8.20;7.40;;;;;;;18.35;77.56;99133.69;5145484;28;20046;-75
2023/06/07 08:50:13;;;;;;;7.68;6.72;;;;;;;18.14;77.62;99094.41;5146586;27;20050;-75
2023/06/07 08:52:41;;;;;;;7.72;6.93;;;;;;;18.41;77.25;99133.13;5145577;28;20044;-75
2023/06/07 08:55:11;;;;;;;7.78;7.07;;;;;;;18.42;77.18;99132.16;5146759;28;20053;-75
2023/06/07 08:57:38;;;;;;;8.25;7.47;;;;;;;18.09;77.30;99079.72;5146959;27;20290;-75
2023/06/07 09:00:08;;;;;;;7.55;6.85;;;;;;;18.34;77.44;99107.84;5146651;27;20113;-75
2023/06/07 09:02:35;;;;;;;8.68;7.07;;;;;;;18.47;77.09;99127.22;5149674;27;20046;-75
2023/06/07 09:05:05;;;;;;;8.10;6.78;;;;;;;18.49;77.09;99123.41;5149600;27;20035;-74
2023/06/07 09:07:35;;;;;;;7.82;6.90;;;;;;;18.03;76.91;99053.47;5150887;27;20047;-74
2023/06/07 09:10:02;;;;;;;7.97;7.18;;;;;;;18.55;76.97;99128.25;5149239;27;20037;-74
2023/06/07 09:12:29;;;;;;;8.90;7.38;;;;;;;18.57;76.80;99133.47;5149171;27;20245;-75
2023/06/07 09:14:57;;;;;;;7.80;7.07;;;;;;;18.34;76.74;99095.28;5150494;27;20050;-74
2023/06/07 09:17:24;;;;;;;9.05;7.03;;;;;;;18.61;76.74;99129.50;5149263;27;20047;-75
2023/06/07 09:19:51;;;;;;;8.68;7.78;;;;;;;18.57;76.70;99117.38;5150230;27;20059;-75
2023/06/07 09:22:25;;;;;;;8.32;7.47;;;;;;;18.74;76.78;99127.41;5150250;27;20093;-75
2023/06/07 09:24:54;;;;;;;7.85;7.15;;;;;;;18.81;76.33;99130.34;5150614;27;20222;-75
2023/06/07 09:27:30;;;;;;;11.40;7.43;;;;;;;18.90;76.49;99133.03;5149858;27;20368;-75
2023/06/07 09:30:05;;;;;;;15.18;8.10;;;;;;;19.00;75.93;99137.56;5148915;27;20053;-75
2023/06/07 09:32:37;;;;;;;7.82;7.10;;;;;;;18.79;74.97;99097.44;5150144;27;20191;-75
2023/06/07 09:35:14;;;;;;;7.70;6.35;;;;;;;19.02;74.83;99136.41;5150206;27;20039;-75
2023/06/07 09:37:46;;;;;;;6.25;5.65;;;;;;;19.09;74.78;99136.69;5148828;27;20050;-75
2023/06/07 09:40:16;;;;;;;7.65;6.20;;;;;;;19.20;75.09;99129.31;5148912;27;20031;-76
2023/06/07 09:42:44;;;;;;;7.57;6.80;;;;;;;19.16;74.97;99102.88;5149505;27;20295;-75
2023/06/07 09:45:12;;;;;;;6.35;5.65;;;;;;;19.44;74.48;99125.31;5148247;27;20355;-76
2023/06/07 09:47:41;;;;;;;6.95;6.25;;;;;;;19.46;73.86;99113.44;5149522;27;20106;-76
2023/06/07 09:50:09;;;;;;;7.72;5.70;;;;;;;19.49;73.64;99106.91;5148711;27;20263;-76
2023/06/07 09:52:36;;;;;;;7.55;6.22;;;;;;;19.39;73.48;99071.19;5150057;27;20046;-76
2023/06/07 09:55:03;;;;;;;6.38;5.68;;;;;;;19.79;73.25;99125.47;5150003;27;20046;-76
2023/06/07 09:57:33;;;;;;;7.60;6.80;;;;;;;19.91;72.90;99112.72;5149697;27;20275;-77
2023/06/07 10:00:13;;;;;;;11.20;6.60;;;;;;;19.88;72.47;99083.41;5149370;27;20047;-77
2023/06/07 10:02:42;;;;;;;6.68;6.07;;;;;;;19.95;72.02;99076.44;5149866;27;20043;-78
2023/06/07 10:05:09;;;;;;;6.78;6.18;;;;;;;19.97;71.71;99058.31;5149658;27;20035;-78
2023/06/07 10:07:40;;;;;;;6.55;5.85;;;;;;;20.31;71.58;99112.34;5148355;27;20031;-78
2023/06/07 10:10:10;;;;;;;6.55;5.90;;;;;;;20.28;70.89;99104.59;5148863;27;20299;-78
2023/06/07 10:12:40;;;;;;;6.03;5.43;;;;;;;20.30;70.70;99102.59;5148790;27;20047;-78
2023/06/07 10:15:10;;;;;;;7.35;6.65;;;;;;;20.35;70.83;99105.66;5149688;27;20119;-77
2023/06/07 10:17:49;;;;;;;7.07;6.22;;;;;;;20.37;69.62;99105.50;5149242;27;20043;-77
2023/06/07 10:20:25;;;;;;;8.70;6.43;;;;;;;20.40;70.19;99099.81;5149195;27;20280;-75
2023/06/07 10:22:59;;;;;;;6.60;5.90;;;;;;;20.41;70.38;99107.75;5149191;27;20050;-76
2023/06/07 10:25:31;;;;;;;6.78;6.15;;;;;;;20.48;70.21;99106.13;5148827;27;20031;-78
2023/06/07 10:28:13;;;;;;;7.85;7.05;;;;;;;20.55;68.88;99097.44;5148757;27;20038;-78
2023/06/07 10:30:45;;;;;;;7.32;6.63;;;;;;;20.64;70.07;99094.66;5149340;27;20043;-77
2023/06/07 10:33:13;;;;;;;8.07;7.28;;;;;;;20.40;69.78;99037.91;5147934;27;20035;-78
2023/06/07 10:35:40;;;;;;;18.52;10.65;;;;;;;20.71;69.34;99090.34;5148606;27;20035;-76
2023/06/07 10:38:08;;;;;;;8.38;7.57;;;;;;;20.43;69.69;99035.75;5149180;27;20198;-76
2023/06/07 10:40:36;;;;;;;10.70;7.28;;;;;;;20.65;69.24;99055.97;5147273;27;20307;-75
2023/06/07 10:43:05;;;;;;;8.75;7.43;;;;;;;20.73;68.45;99041.72;5148559;27;20035;-77
2023/06/07 10:45:32;;;;;;;7.63;6.93;;;;;;;21.10;68.24;99085.47;5147289;27;20047;-76
2023/06/07 10:48:35;;;;;;;8.10;7.07;;;;;;;20.93;65.37;99026.22;5148905;27;20039;-76
2023/06/07 10:51:02;;;;;;;7.90;7.10;;;;;;;21.15;67.53;99039.19;5148578;27;20039;-78
2023/06/07 10:53:53;;;;;;;6.60;6.00;;;;;;;21.29;65.21;99040.44;5148564;27;20039;-78
2023/06/07 10:56:32;;;;;;;12.68;8.77;;;;;;;21.65;65.90;99068.94;5148643;27;20054;-76
2023/06/07 10:59:21;;;;;;;10.63;8.80;;;;;;;20.09;63.92;98782.72;5148397;27;20042;-77
2023/06/07 11:01:49;;;;;;;8.75;7.07;;;;;;;21.88;65.69;99066.53;5147123;27;20043;-77
2023/06/07 11:04:56;;;;;;;9.90;8.65;;;;;;;21.90;62.68;99064.50;5148375;27;20062;-75
2023/06/07 11:07:25;;;;;;;9.73;7.90;;;;;;;21.98;64.77;99071.78;5147769;27;20043;-79
2023/06/07 11:10:25;;;;;;;8.63;7.63;;;;;;;21.84;62.52;99037.34;5148922;27;20063;-78
2023/06/07 11:12:56;;;;;;;8.02;7.28;;;;;;;22.01;62.79;99072.28;5148303;27;20272;-78
2023/06/07 11:15:30;;;;;;;7.50;6.80;;;;;;;21.95;64.01;99069.41;5149703;27;20273;-80
2023/06/07 11:17:58;;;;;;;9.25;7.63;;;;;;;21.99;64.38;99073.47;5149793;27;20047;-78
2023/06/07 11:20:55;;;;;;;9.23;7.90;;;;;;;21.28;60.73;98949.81;5147180;27;20237;-78
2023/06/07 11:23:26;;;;;;;8.07;7.28;;;;;;;21.65;62.74;99000.66;5066296;28;20082;-79
2023/06/07 11:25:56;;;;;;;8.50;6.95;;;;;;;22.01;62.70;99068.75;5131459;27;20050;-79
2023/06/07 11:28:24;;;;;;;7.03;6.25;;;;;;;21.52;62.63;99000.28;5147346;27;20074;-79
2023/06/07 11:30:53;;;;;;;7.55;6.85;;;;;;;22.06;62.36;99061.00;5149784;27;20286;-79
2023/06/07 11:33:21;;;;;;;9.23;7.80;;;;;;;22.11;62.64;99061.34;5147553;27;20298;-80
2023/06/07 11:35:48;;;;;;;12.55;9.07;;;;;;;22.19;62.61;99058.69;5148662;27;20056;-78
2023/06/07 11:38:16;;;;;;;12.48;10.13;;;;;;;22.27;62.23;99052.44;5147503;27;20039;-74
2023/06/07 11:40:43;;;;;;;10.73;9.73;;;;;;;22.29;62.13;99053.13;5147768;27;20106;-75